createdAt,value
2016-07-02T00:00:57.914Z,-86
2016-07-02T00:01:57.916Z,-86
2016-07-02T00:02:57.943Z,-86
2016-07-02T00:03:57.836Z,-86
2016-07-02T00:04:57.861Z,-87
2016-07-02T00:05:57.928Z,-87
2016-07-02T00:06:57.815Z,-86
2016-07-02T00:07:57.855Z,-86
2016-07-02T00:08:57.804Z,-86
2016-07-02T00:09:57.836Z,-87
2016-07-02T00:10:57.969Z,-87
2016-07-02T00:11:57.949Z,-86
2016-07-02T00:12:57.934Z,-86
2016-07-02T00:13:57.876Z,-86
2016-07-02T00:14:57.943Z,-87
2016-07-02T00:15:57.801Z,-86
2016-07-02T00:16:57.805Z,-86
2016-07-02T00:17:57.884Z,-87
2016-07-02T00:18:57.908Z,-86
2016-07-02T00:19:57.950Z,-87
2016-07-02T00:20:57.934Z,-86
2016-07-02T00:21:57.863Z,-86
2016-07-02T00:22:57.986Z,-85
2016-07-02T00:23:57.969Z,-86
2016-07-02T00:24:57.880Z,-86
2016-07-02T00:25:57.900Z,-86
2016-07-02T00:26:57.827Z,-86
2016-07-02T00:27:58.028Z,-86
2016-07-02T00:28:57.935Z,-86
2016-07-02T00:29:57.881Z,-86
2016-07-02T00:30:58.081Z,-86
2016-07-02T00:31:57.945Z,-87
2016-07-02T00:32:57.933Z,-86
2016-07-02T00:33:57.999Z,-87
2016-07-02T00:34:57.939Z,-86
2016-07-02T00:35:57.954Z,-86
2016-07-02T00:36:57.915Z,-86
2016-07-02T00:37:57.929Z,-86
2016-07-02T00:38:57.933Z,-86
2016-07-02T00:39:58.020Z,-86
2016-07-02T00:40:57.945Z,-87
2016-07-02T00:41:57.944Z,-87
2016-07-02T00:42:57.996Z,-87
2016-07-02T00:43:57.917Z,-87
2016-07-02T00:44:57.899Z,-87
2016-07-02T00:45:57.984Z,-88
2016-07-02T00:46:58.006Z,-87
2016-07-02T00:47:58.021Z,-87
2016-07-02T00:48:58.018Z,-87
2016-07-02T00:49:57.975Z,-87
2016-07-02T00:50:57.935Z,-87
2016-07-02T00:51:57.799Z,-87
2016-07-02T00:52:58.025Z,-86
2016-07-02T00:53:57.923Z,-87
2016-07-02T00:54:57.998Z,-88
2016-07-02T00:55:57.985Z,-87
2016-07-02T00:56:58.074Z,-87
2016-07-02T00:57:58.028Z,-86
2016-07-02T00:58:58.069Z,-86
2016-07-02T00:59:57.921Z,-87
2016-07-02T01:00:57.995Z,-87
2016-07-02T01:01:57.999Z,-86
2016-07-02T01:02:58.017Z,-87
2016-07-02T01:03:57.907Z,-87
2016-07-02T01:04:58.001Z,-87
2016-07-02T01:05:58.022Z,-87
2016-07-02T01:06:58.022Z,-87
2016-07-02T01:07:58.074Z,-87
2016-07-02T01:08:58.029Z,-87
2016-07-02T01:09:57.995Z,-86
2016-07-02T01:10:58.014Z,-87
2016-07-02T01:11:57.969Z,-87
2016-07-02T01:12:57.966Z,-87
2016-07-02T01:13:57.957Z,-86
2016-07-02T01:14:57.980Z,-87
2016-07-02T01:15:58.018Z,-86
2016-07-02T01:16:58.127Z,-86
2016-07-02T01:17:57.993Z,-86
2016-07-02T01:18:58.025Z,-86
2016-07-02T01:19:58.081Z,-86
2016-07-02T01:20:58.147Z,-86
2016-07-02T01:21:58.091Z,-86
2016-07-02T01:22:58.107Z,-86
2016-07-02T01:23:58.043Z,-86
2016-07-02T01:24:58.124Z,-86
2016-07-02T01:25:58.130Z,-86
2016-07-02T01:26:57.969Z,-86
2016-07-02T01:27:58.014Z,-86
2016-07-02T01:28:58.034Z,-86
2016-07-02T01:29:58.130Z,-86
2016-07-02T01:30:58.066Z,-86
2016-07-02T01:31:57.957Z,-86
2016-07-02T01:32:58.043Z,-86
2016-07-02T01:33:58.102Z,-87
2016-07-02T01:34:57.956Z,-86
2016-07-02T01:35:58.003Z,-86
2016-07-02T01:36:58.079Z,-86
2016-07-02T01:37:58.036Z,-86
2016-07-02T01:38:58.061Z,-87
2016-07-02T01:39:58.075Z,-86
2016-07-02T01:40:58.020Z,-86
2016-07-02T01:41:58.048Z,-86
2016-07-02T01:42:58.130Z,-86
2016-07-02T01:43:58.110Z,-86
2016-07-02T01:44:58.187Z,-86
2016-07-02T01:45:58.147Z,-86
2016-07-02T01:46:58.180Z,-86
2016-07-02T01:47:58.113Z,-86
2016-07-02T01:48:58.085Z,-86
2016-07-02T01:49:58.168Z,-86
2016-07-02T01:50:58.023Z,-86
2016-07-02T01:51:58.143Z,-86
2016-07-02T01:52:58.071Z,-86
2016-07-02T01:53:58.037Z,-86
2016-07-02T01:54:58.002Z,-85
2016-07-02T01:55:58.130Z,-86
2016-07-02T01:56:58.152Z,-86
2016-07-02T01:57:58.211Z,-86
2016-07-02T01:58:58.137Z,-86
2016-07-02T01:59:58.144Z,-86
2016-07-02T02:00:58.128Z,-86
2016-07-02T02:01:58.056Z,-86
2016-07-02T02:02:58.232Z,-86
2016-07-02T02:03:58.070Z,-86
2016-07-02T02:04:58.305Z,-86
2016-07-02T02:05:58.099Z,-86
2016-07-02T02:06:58.156Z,-86
2016-07-02T02:07:58.079Z,-86
2016-07-02T02:08:58.114Z,-86
2016-07-02T02:09:58.082Z,-86
2016-07-02T02:10:58.191Z,-86
2016-07-02T02:11:58.191Z,-86
2016-07-02T02:12:58.110Z,-86
2016-07-02T02:13:58.000Z,-86
2016-07-02T02:14:58.323Z,-85
2016-07-02T02:15:58.220Z,-85
2016-07-02T02:16:58.236Z,-85
2016-07-02T02:17:58.130Z,-86
2016-07-02T02:18:58.123Z,-86
2016-07-02T02:19:58.234Z,-86
2016-07-02T02:20:58.087Z,-86
2016-07-02T02:21:58.194Z,-86
2016-07-02T02:22:58.122Z,-86
2016-07-02T02:23:58.119Z,-86
2016-07-02T02:24:58.135Z,-86
2016-07-02T02:25:58.266Z,-86
2016-07-02T02:26:58.189Z,-86
2016-07-02T02:27:58.105Z,-86
2016-07-02T02:28:58.244Z,-86
2016-07-02T02:29:58.235Z,-86
2016-07-02T02:30:58.156Z,-85
2016-07-02T02:31:58.217Z,-86
2016-07-02T02:32:58.275Z,-86
2016-07-02T02:33:58.179Z,-86
2016-07-02T02:34:58.296Z,-86
2016-07-02T02:35:58.171Z,-86
2016-07-02T02:36:58.280Z,-85
2016-07-02T02:37:58.145Z,-86
2016-07-02T02:38:58.284Z,-86
2016-07-02T02:39:58.316Z,-85
2016-07-02T02:40:58.250Z,-86
2016-07-02T02:41:58.250Z,-86
2016-07-02T02:42:58.832Z,-86
2016-07-02T02:43:58.311Z,-86
2016-07-02T02:44:58.183Z,-86
2016-07-02T02:45:58.163Z,-86
2016-07-02T02:46:58.234Z,-85
2016-07-02T02:47:58.163Z,-86
2016-07-02T02:48:58.326Z,-85
2016-07-02T02:49:58.285Z,-85
2016-07-02T02:50:58.160Z,-86
2016-07-02T02:51:58.167Z,-85
2016-07-02T02:52:58.287Z,-85
2016-07-02T02:53:58.298Z,-85
2016-07-02T02:54:58.381Z,-85
2016-07-02T02:55:58.265Z,-85
2016-07-02T02:56:58.268Z,-85
2016-07-02T02:57:58.272Z,-85
2016-07-02T02:58:58.292Z,-85
2016-07-02T02:59:58.372Z,-85
2016-07-02T03:00:58.289Z,-86
2016-07-02T03:01:58.177Z,-85
2016-07-02T03:02:58.287Z,-85
2016-07-02T03:03:58.368Z,-85
2016-07-02T03:04:58.201Z,-85
2016-07-02T03:05:58.287Z,-85
2016-07-02T03:06:58.310Z,-85
2016-07-02T03:07:58.236Z,-85
2016-07-02T03:08:58.314Z,-85
2016-07-02T03:09:58.287Z,-85
2016-07-02T03:10:58.290Z,-85
2016-07-02T03:11:58.178Z,-85
2016-07-02T03:12:58.269Z,-85
2016-07-02T03:13:58.241Z,-85
2016-07-02T03:14:58.305Z,-85
2016-07-02T03:15:58.292Z,-85
2016-07-02T03:16:58.221Z,-85
2016-07-02T03:17:58.343Z,-86
2016-07-02T03:18:58.395Z,-86
2016-07-02T03:19:58.343Z,-85
2016-07-02T03:20:58.424Z,-86
2016-07-02T03:21:58.393Z,-85
2016-07-02T03:22:58.287Z,-86
2016-07-02T03:23:58.353Z,-86
2016-07-02T03:24:58.389Z,-86
2016-07-02T03:25:58.391Z,-86
2016-07-02T03:26:58.351Z,-86
2016-07-02T03:27:58.306Z,-85
2016-07-02T03:28:58.405Z,-86
2016-07-02T03:29:58.357Z,-85
2016-07-02T03:30:58.412Z,-86
2016-07-02T03:31:58.366Z,-85
2016-07-02T03:32:58.330Z,-86
2016-07-02T03:33:58.309Z,-85
2016-07-02T03:34:58.409Z,-86
2016-07-02T03:35:58.439Z,-86
2016-07-02T03:36:58.308Z,-85
2016-07-02T03:37:58.410Z,-86
2016-07-02T03:38:58.289Z,-86
2016-07-02T03:39:58.311Z,-86
2016-07-02T03:40:58.501Z,-86
2016-07-02T03:41:58.376Z,-86
2016-07-02T03:42:58.329Z,-86
2016-07-02T03:43:58.234Z,-85
2016-07-02T03:44:58.316Z,-86
2016-07-02T03:45:58.328Z,-85
2016-07-02T03:46:58.355Z,-86
2016-07-02T03:47:58.335Z,-86
2016-07-02T03:48:58.386Z,-86
2016-07-02T03:49:58.257Z,-86
2016-07-02T03:50:58.361Z,-86
2016-07-02T03:51:58.343Z,-85
2016-07-02T03:52:58.339Z,-86
2016-07-02T03:53:58.230Z,-86
2016-07-02T03:54:58.408Z,-86
2016-07-02T03:55:58.369Z,-85
2016-07-02T03:56:58.321Z,-86
2016-07-02T04:06:35.223Z,-85
2016-07-02T04:06:42.271Z,-86
2016-07-02T04:07:42.146Z,-86
2016-07-02T04:08:42.213Z,-86
2016-07-02T04:09:42.181Z,-86
2016-07-02T04:10:42.189Z,-86
2016-07-02T04:11:42.253Z,-86
2016-07-02T04:12:42.249Z,-86
2016-07-02T04:13:42.215Z,-85
2016-07-02T04:14:42.209Z,-86
2016-07-02T04:15:42.130Z,-86
2016-07-02T04:16:42.228Z,-86
2016-07-02T04:17:42.290Z,-86
2016-07-02T04:18:42.294Z,-85
2016-07-02T04:19:42.281Z,-86
2016-07-02T04:20:42.304Z,-86
2016-07-02T04:21:42.337Z,-86
2016-07-02T04:22:42.223Z,-85
2016-07-02T04:23:42.262Z,-86
2016-07-02T04:24:42.293Z,-85
2016-07-02T04:25:42.251Z,-85
2016-07-02T04:26:42.155Z,-86
2016-07-02T04:27:42.325Z,-87
2016-07-02T04:28:42.196Z,-86
2016-07-02T04:29:42.339Z,-85
2016-07-02T04:30:42.294Z,-86
2016-07-02T04:43:42.824Z,-86
2016-07-02T04:43:49.904Z,-86
2016-07-02T04:44:49.848Z,-86
2016-07-02T04:45:49.876Z,-86
2016-07-02T04:46:49.846Z,-86
2016-07-02T04:47:49.843Z,-86
2016-07-02T04:48:49.807Z,-88
2016-07-02T04:49:49.862Z,-89
2016-07-02T04:50:49.964Z,-91
2016-07-02T04:51:49.886Z,-90
2016-07-02T04:52:49.779Z,-90
2016-07-02T04:53:49.848Z,-90
2016-07-02T05:05:39.322Z,-90
2016-07-02T05:05:46.355Z,-90
2016-07-02T05:06:46.336Z,-91
2016-07-02T05:07:46.402Z,-90
2016-07-02T05:08:46.278Z,-90
2016-07-02T05:09:46.347Z,-90
2016-07-02T05:10:46.247Z,-90
2016-07-02T05:11:46.331Z,-91
2016-07-02T05:12:46.344Z,-91
2016-07-02T05:13:46.352Z,-90
2016-07-02T05:14:46.356Z,-90
2016-07-02T05:15:46.253Z,-90
2016-07-02T05:16:46.374Z,-89
2016-07-02T05:17:46.351Z,-90
2016-07-02T05:18:46.354Z,-89
2016-07-02T05:19:46.206Z,-90
2016-07-02T05:20:46.389Z,-90
2016-07-02T05:21:46.389Z,-90
2016-07-02T05:22:46.290Z,-90
2016-07-02T05:23:46.343Z,-90
2016-07-02T05:24:46.427Z,-89
2016-07-02T05:25:46.391Z,-90
2016-07-02T05:26:46.322Z,-90
2016-07-02T05:27:46.382Z,-90
2016-07-02T05:28:46.420Z,-90
2016-07-02T05:29:46.377Z,-89
2016-07-02T05:30:46.467Z,-89
2016-07-02T05:31:46.448Z,-89
2016-07-02T05:32:46.467Z,-90
2016-07-02T05:33:46.394Z,-90
2016-07-02T05:34:46.448Z,-90
2016-07-02T05:35:46.384Z,-89
2016-07-02T05:36:46.260Z,-90
2016-07-02T05:37:46.334Z,-88
2016-07-02T05:38:46.371Z,-90
2016-07-02T05:39:46.467Z,-90
2016-07-02T05:40:46.360Z,-89
2016-07-02T05:41:46.396Z,-89
2016-07-02T05:42:46.409Z,-90
2016-07-02T05:43:46.372Z,-89
2016-07-02T05:44:46.444Z,-89
2016-07-02T05:45:46.489Z,-89
2016-07-02T05:46:46.367Z,-89
2016-07-02T05:47:46.322Z,-89
2016-07-02T05:48:46.486Z,-89
2016-07-02T05:49:46.419Z,-88
2016-07-02T05:50:46.377Z,-88
2016-07-02T05:51:46.393Z,-88
2016-07-02T05:52:46.536Z,-89
2016-07-02T05:53:46.383Z,-88
2016-07-02T05:54:46.443Z,-88
2016-07-02T05:55:46.456Z,-88
2016-07-02T05:56:46.447Z,-89
2016-07-02T05:57:46.411Z,-88
2016-07-02T05:58:46.407Z,-87
2016-07-02T05:59:46.518Z,-89
2016-07-02T06:00:46.456Z,-89
2016-07-02T06:01:46.444Z,-88
2016-07-02T06:02:46.407Z,-88
2016-07-02T06:03:46.491Z,-88
2016-07-02T06:04:46.618Z,-88
2016-07-02T06:05:46.341Z,-88
2016-07-02T06:06:46.398Z,-88
2016-07-02T06:07:46.499Z,-88
2016-07-02T06:08:46.543Z,-87
2016-07-02T06:09:46.491Z,-88
2016-07-02T06:10:46.479Z,-87
2016-07-02T06:11:46.463Z,-88
2016-07-02T06:12:46.496Z,-88
2016-07-02T06:13:46.450Z,-88
2016-07-02T06:14:46.466Z,-88
2016-07-02T06:15:46.509Z,-87
2016-07-02T06:16:46.474Z,-87
2016-07-02T06:17:46.488Z,-87
2016-07-02T06:18:46.498Z,-88
2016-07-02T06:19:46.439Z,-87
2016-07-02T06:20:46.516Z,-87
2016-07-02T06:21:46.496Z,-88
2016-07-02T06:22:46.458Z,-87
2016-07-02T06:23:46.557Z,-87
2016-07-02T06:24:46.598Z,-87
2016-07-02T06:25:46.380Z,-88
2016-07-02T06:26:46.433Z,-87
2016-07-02T06:27:46.508Z,-87
2016-07-02T06:28:46.573Z,-86
2016-07-02T06:29:46.506Z,-87
2016-07-02T06:30:46.509Z,-87
2016-07-02T06:31:46.495Z,-87
2016-07-02T06:32:46.567Z,-87
2016-07-02T06:33:46.550Z,-87
2016-07-02T06:34:46.544Z,-86
2016-07-02T06:35:46.371Z,-87
2016-07-02T06:36:46.470Z,-87
2016-07-02T06:37:46.559Z,-86
2016-07-02T06:38:46.453Z,-86
2016-07-02T06:39:46.555Z,-86
2016-07-02T06:40:46.626Z,-87
2016-07-02T06:41:46.539Z,-87
2016-07-02T06:42:46.554Z,-87
2016-07-02T06:43:46.611Z,-87
2016-07-02T06:44:46.509Z,-86
2016-07-02T06:45:46.526Z,-86
2016-07-02T06:46:46.548Z,-86
2016-07-02T06:47:46.459Z,-86
2016-07-02T06:48:46.569Z,-86
2016-07-02T06:49:46.546Z,-86
2016-07-02T06:50:46.509Z,-86
2016-07-02T06:51:46.507Z,-86
2016-07-02T06:52:46.617Z,-86
2016-07-02T06:53:46.573Z,-85
2016-07-02T06:54:46.561Z,-86
2016-07-02T06:55:46.545Z,-86
2016-07-02T06:56:46.563Z,-86
2016-07-02T06:57:46.769Z,-86
2016-07-02T06:58:46.612Z,-86
2016-07-02T06:59:46.552Z,-87
2016-07-02T07:00:46.600Z,-86
2016-07-02T07:01:46.507Z,-86
2016-07-02T07:02:46.621Z,-86
2016-07-02T07:03:46.561Z,-86
2016-07-02T07:04:46.548Z,-86
2016-07-02T07:05:46.603Z,-86
2016-07-02T07:06:46.611Z,-86
2016-07-02T07:07:46.588Z,-86
2016-07-02T07:08:46.534Z,-86
2016-07-02T07:09:46.629Z,-86
2016-07-02T07:10:46.680Z,-85
2016-07-02T07:11:46.646Z,-85
2016-07-02T07:12:46.537Z,-85
2016-07-02T07:13:46.580Z,-85
2016-07-02T07:14:46.652Z,-85
2016-07-02T07:15:46.522Z,-86
2016-07-02T07:16:46.505Z,-85
2016-07-02T07:17:46.520Z,-85
2016-07-02T07:18:46.552Z,-86
2016-07-02T07:19:46.721Z,-86
2016-07-02T07:20:46.657Z,-85
2016-07-02T07:21:46.611Z,-85
2016-07-02T07:22:46.639Z,-85
2016-07-02T07:23:46.724Z,-86
2016-07-02T07:24:50.105Z,-85
2016-07-02T07:25:46.656Z,-86
2016-07-02T07:26:46.653Z,-86
2016-07-02T07:27:46.674Z,-86
2016-07-02T07:28:46.867Z,-85
2016-07-02T07:29:46.592Z,-85
2016-07-02T07:30:46.631Z,-86
2016-07-02T07:31:46.729Z,-86
2016-07-02T07:32:46.669Z,-86
2016-07-02T07:33:46.623Z,-86
2016-07-02T07:34:46.762Z,-86
2016-07-02T07:35:46.698Z,-86
2016-07-02T07:36:46.690Z,-86
2016-07-02T07:37:46.694Z,-86
2016-07-02T07:38:46.597Z,-86
2016-07-02T07:39:46.562Z,-86
2016-07-02T07:40:46.697Z,-86
2016-07-02T07:41:46.678Z,-86
2016-07-02T07:42:46.645Z,-87
2016-07-02T07:43:46.683Z,-87
2016-07-02T07:56:47.606Z,-87
2016-07-02T07:56:54.608Z,-87
2016-07-02T07:57:54.640Z,-87
2016-07-02T07:58:54.600Z,-87
2016-07-02T07:59:54.665Z,-87
2016-07-02T08:00:54.630Z,-87
2016-07-02T08:01:54.655Z,-88
2016-07-02T08:02:54.632Z,-87
2016-07-02T08:03:54.580Z,-87
2016-07-02T08:04:54.663Z,-88
2016-07-02T08:05:54.716Z,-88
2016-07-02T08:06:54.708Z,-87
2016-07-02T08:07:54.655Z,-87
2016-07-02T08:08:54.674Z,-88
2016-07-02T08:09:54.721Z,-87
2016-07-02T08:10:54.724Z,-88
2016-07-02T08:11:54.587Z,-88
2016-07-02T08:12:54.552Z,-88
2016-07-02T08:13:54.675Z,-88
2016-07-02T08:14:54.610Z,-88
2016-07-02T08:15:54.553Z,-88
2016-07-02T08:16:54.605Z,-88
2016-07-02T08:17:54.540Z,-88
2016-07-02T08:18:54.540Z,-88
2016-07-02T08:19:54.734Z,-88
2016-07-02T08:20:54.725Z,-88
2016-07-02T08:21:54.675Z,-89
2016-07-02T08:22:54.753Z,-89
2016-07-02T08:23:54.694Z,-88
2016-07-02T08:24:54.666Z,-89
2016-07-02T08:25:54.594Z,-89
2016-07-02T08:26:54.643Z,-89
2016-07-02T08:27:54.600Z,-89
2016-07-02T08:40:55.560Z,-89
2016-07-02T08:41:02.603Z,-89
2016-07-02T08:42:02.504Z,-89
2016-07-02T08:43:02.606Z,-89
2016-07-02T08:44:02.528Z,-90
2016-07-02T08:45:02.574Z,-90
2016-07-02T08:46:02.539Z,-90
2016-07-02T08:47:02.630Z,-90
2016-07-02T08:48:02.620Z,-90
2016-07-02T08:49:02.633Z,-90
2016-07-02T08:50:02.622Z,-89
2016-07-02T08:51:02.626Z,-90
2016-07-02T08:52:02.618Z,-89
2016-07-02T08:53:02.537Z,-90
2016-07-02T08:54:02.516Z,-90
2016-07-02T08:55:02.587Z,-91
2016-07-02T08:56:02.624Z,-90
2016-07-02T08:57:02.670Z,-90
2016-07-02T08:58:02.574Z,-90
2016-07-02T08:59:02.574Z,-89
2016-07-02T09:00:02.568Z,-89
2016-07-02T09:01:02.578Z,-90
2016-07-02T09:02:02.567Z,-90
2016-07-02T09:03:02.667Z,-90
2016-07-02T09:04:02.551Z,-90
2016-07-02T09:05:02.668Z,-90
2016-07-02T09:06:02.662Z,-89
2016-07-02T09:07:02.556Z,-89
2016-07-02T09:08:02.513Z,-90
2016-07-02T09:09:02.680Z,-89
2016-07-02T09:10:02.645Z,-89
2016-07-02T09:11:02.680Z,-89
2016-07-02T09:12:02.821Z,-88
2016-07-02T09:13:02.699Z,-88
2016-07-02T09:14:02.672Z,-88
2016-07-02T09:15:02.631Z,-88
2016-07-02T09:16:02.641Z,-89
2016-07-02T09:17:02.625Z,-88
2016-07-02T09:18:02.585Z,-88
2016-07-02T09:19:02.642Z,-89
2016-07-02T09:20:02.736Z,-89
2016-07-02T09:21:02.685Z,-89
2016-07-02T09:22:02.787Z,-89
2016-07-02T09:23:02.709Z,-89
2016-07-02T09:24:02.865Z,-89
2016-07-02T09:25:02.688Z,-87
2016-07-02T09:26:02.884Z,-88
2016-07-02T09:27:02.709Z,-88
2016-07-02T09:28:02.748Z,-87
2016-07-02T09:29:02.827Z,-87
2016-07-02T09:30:02.656Z,-88
2016-07-02T09:31:02.690Z,-89
2016-07-02T09:32:02.837Z,-88
2016-07-02T09:33:02.684Z,-88
2016-07-02T09:34:02.724Z,-89
2016-07-02T09:35:02.753Z,-88
2016-07-02T09:36:02.796Z,-89
2016-07-02T09:37:02.716Z,-89
2016-07-02T09:38:02.713Z,-89
2016-07-02T09:39:02.668Z,-89
2016-07-02T09:40:02.684Z,-90
2016-07-02T09:41:02.719Z,-89
2016-07-02T09:42:02.747Z,-88
2016-07-02T09:43:02.726Z,-90
2016-07-02T09:44:02.703Z,-89
2016-07-02T09:45:02.768Z,-90
2016-07-02T09:46:02.863Z,-89
2016-07-02T09:47:03.045Z,-89
2016-07-02T09:48:02.710Z,-89
2016-07-02T09:49:02.663Z,-89
2016-07-02T09:50:02.692Z,-89
2016-07-02T09:51:02.647Z,-89
2016-07-02T09:52:02.821Z,-91
2016-07-02T09:53:02.753Z,-90
2016-07-02T09:54:02.741Z,-87
2016-07-02T09:55:02.667Z,-86
2016-07-02T09:56:02.736Z,-86
2016-07-02T09:57:02.797Z,-86
2016-07-02T09:58:02.841Z,-85
2016-07-02T09:59:02.809Z,-85
2016-07-02T10:00:02.778Z,-86
2016-07-02T10:01:02.810Z,-86
2016-07-02T10:02:03.705Z,-86
2016-07-02T10:05:10.649Z,-86
2016-07-02T10:05:17.566Z,-86
2016-07-02T10:06:17.710Z,-86
2016-07-02T10:07:17.720Z,-86
2016-07-02T10:08:17.680Z,-86
2016-07-02T10:09:17.690Z,-86
2016-07-02T10:10:17.716Z,-86
2016-07-02T10:11:17.629Z,-87
2016-07-02T10:12:17.740Z,-86
2016-07-02T10:13:17.707Z,-87
2016-07-02T10:14:17.796Z,-87
2016-07-02T10:15:17.812Z,-87
2016-07-02T10:16:17.678Z,-87
2016-07-02T10:17:17.689Z,-87
2016-07-02T10:18:17.764Z,-87
2016-07-02T10:19:17.618Z,-87
2016-07-02T10:20:17.705Z,-87
2016-07-02T10:21:17.679Z,-88
2016-07-02T10:22:17.619Z,-88
2016-07-02T10:23:17.776Z,-87
2016-07-02T10:24:17.631Z,-87
2016-07-02T10:25:17.774Z,-88
2016-07-02T10:26:17.678Z,-88
2016-07-02T10:27:17.668Z,-88
2016-07-02T10:28:17.666Z,-87
2016-07-02T10:29:17.923Z,-86
2016-07-02T10:30:17.674Z,-87
2016-07-02T10:31:17.699Z,-88
2016-07-02T10:32:17.807Z,-88
2016-07-02T10:33:17.768Z,-88
2016-07-02T10:34:17.698Z,-88
2016-07-02T10:35:17.707Z,-87
2016-07-02T10:36:17.631Z,-88
2016-07-02T10:37:17.702Z,-87
2016-07-02T10:38:17.818Z,-87
2016-07-02T10:39:17.645Z,-87
2016-07-02T10:40:17.628Z,-87
2016-07-02T10:41:17.813Z,-86
2016-07-02T10:42:17.798Z,-87
2016-07-02T10:43:17.762Z,-86
2016-07-02T10:44:17.756Z,-86
2016-07-02T10:45:17.736Z,-86
2016-07-02T10:46:17.815Z,-86
2016-07-02T10:47:17.655Z,-87
2016-07-02T10:48:17.831Z,-86
2016-07-02T10:49:17.832Z,-85
2016-07-02T10:50:17.779Z,-86
2016-07-02T10:51:17.698Z,-85
2016-07-02T10:52:17.873Z,-85
2016-07-02T10:53:17.825Z,-85
2016-07-02T10:54:17.826Z,-85
2016-07-02T10:55:17.782Z,-86
2016-07-02T10:56:17.716Z,-85
2016-07-02T10:57:17.843Z,-86
2016-07-02T10:58:17.861Z,-84
2016-07-02T10:59:17.852Z,-85
2016-07-02T11:00:17.741Z,-85
2016-07-02T11:01:17.774Z,-85
2016-07-02T11:02:17.746Z,-85
2016-07-02T11:03:17.848Z,-85
2016-07-02T11:04:17.763Z,-85
2016-07-02T11:05:17.751Z,-85
2016-07-02T11:06:17.821Z,-85
2016-07-02T11:07:17.790Z,-85
2016-07-02T11:08:17.824Z,-85
2016-07-02T11:09:17.817Z,-85
2016-07-02T11:10:17.859Z,-85
2016-07-02T11:11:17.796Z,-86
2016-07-02T11:12:17.808Z,-85
2016-07-02T11:13:17.758Z,-84
2016-07-02T11:14:17.890Z,-85
2016-07-02T11:15:17.891Z,-86
2016-07-02T11:16:17.959Z,-85
2016-07-02T11:17:17.879Z,-85
2016-07-02T11:18:17.918Z,-85
2016-07-02T11:19:17.961Z,-85
2016-07-02T11:20:17.863Z,-85
2016-07-02T11:21:17.886Z,-85
2016-07-02T11:22:17.881Z,-85
2016-07-02T11:23:17.896Z,-84
2016-07-02T11:24:17.947Z,-85
2016-07-02T11:25:17.973Z,-86
2016-07-02T11:26:17.885Z,-84
2016-07-02T11:27:17.775Z,-85
2016-07-02T11:28:17.860Z,-86
2016-07-02T11:29:17.970Z,-85
2016-07-02T11:30:17.827Z,-85
2016-07-02T11:31:17.854Z,-84
2016-07-02T11:32:17.893Z,-84
2016-07-02T11:33:17.836Z,-85
2016-07-02T11:34:17.895Z,-85
2016-07-02T11:35:17.846Z,-85
2016-07-02T11:36:17.861Z,-85
2016-07-02T11:41:36.555Z,-86
2016-07-02T11:41:43.555Z,-86
2016-07-02T11:42:43.578Z,-85
2016-07-02T11:43:43.542Z,-85
2016-07-02T11:44:43.669Z,-85
2016-07-02T11:45:43.552Z,-85
2016-07-02T11:46:43.641Z,-84
2016-07-02T11:47:43.569Z,-85
2016-07-02T11:48:43.548Z,-85
2016-07-02T11:49:43.500Z,-86
2016-07-02T11:50:43.504Z,-85
2016-07-02T11:51:43.538Z,-85
2016-07-02T11:52:43.711Z,-86
2016-07-02T11:53:43.734Z,-85
2016-07-02T11:54:43.611Z,-85
2016-07-02T11:55:43.655Z,-86
2016-07-02T11:56:43.567Z,-85
2016-07-02T11:57:43.546Z,-86
2016-07-02T11:58:43.562Z,-85
2016-07-02T11:59:44.133Z,-85
2016-07-02T12:00:43.629Z,-85
2016-07-02T12:01:43.578Z,-85
2016-07-02T12:02:43.515Z,-85
2016-07-02T12:03:43.606Z,-85
2016-07-02T12:04:43.692Z,-85
2016-07-02T12:05:43.597Z,-85
2016-07-02T12:06:43.774Z,-85
2016-07-02T12:07:43.690Z,-85
2016-07-02T12:08:43.699Z,-85
2016-07-02T12:09:43.607Z,-85
2016-07-02T12:10:43.780Z,-85
2016-07-02T12:11:43.589Z,-86
2016-07-02T12:12:43.665Z,-86
2016-07-02T12:13:43.652Z,-86
2016-07-02T12:14:43.629Z,-85
2016-07-02T12:15:43.713Z,-86
2016-07-02T12:16:43.569Z,-85
2016-07-02T12:17:43.694Z,-84
2016-07-02T12:18:43.600Z,-85
2016-07-02T12:19:43.688Z,-86
2016-07-02T12:20:43.639Z,-86
2016-07-02T12:21:43.654Z,-85
2016-07-02T12:22:43.738Z,-85
2016-07-02T12:23:43.761Z,-86
2016-07-02T12:24:43.844Z,-86
2016-07-02T12:25:43.640Z,-85
2016-07-02T12:26:43.754Z,-85
2016-07-02T12:27:43.678Z,-86
2016-07-02T12:28:43.715Z,-85
2016-07-02T12:29:43.778Z,-85
2016-07-02T12:30:43.744Z,-85
2016-07-02T12:31:43.669Z,-85
2016-07-02T12:32:43.615Z,-85
2016-07-02T12:33:43.689Z,-86
2016-07-02T12:34:43.814Z,-85
2016-07-02T12:35:43.710Z,-86
2016-07-02T12:36:43.679Z,-85
2016-07-02T12:37:43.547Z,-86
2016-07-02T12:38:43.747Z,-85
2016-07-02T12:39:43.679Z,-85
2016-07-02T12:40:43.762Z,-85
2016-07-02T12:41:43.754Z,-85
2016-07-02T12:42:43.697Z,-85
2016-07-02T12:43:43.688Z,-86
2016-07-02T12:44:43.847Z,-85
2016-07-02T12:45:43.667Z,-86
2016-07-02T12:46:43.715Z,-85
2016-07-02T12:47:43.712Z,-85
2016-07-02T12:48:43.864Z,-86
2016-07-02T12:49:43.676Z,-86
2016-07-02T12:50:43.771Z,-85
2016-07-02T12:51:43.738Z,-86
2016-07-02T12:52:43.745Z,-85
2016-07-02T12:53:43.784Z,-85
2016-07-02T12:54:43.761Z,-85
2016-07-02T12:55:43.803Z,-86
2016-07-02T12:56:43.788Z,-85
2016-07-02T12:57:43.732Z,-86
2016-07-02T12:58:43.761Z,-85
2016-07-02T12:59:43.925Z,-86
2016-07-02T13:00:43.883Z,-85
2016-07-02T13:01:43.784Z,-85
2016-07-02T13:02:43.808Z,-85
2016-07-02T13:03:43.676Z,-86
2016-07-02T13:04:43.748Z,-86
2016-07-02T13:05:43.784Z,-86
2016-07-02T13:06:43.833Z,-85
2016-07-02T13:07:43.881Z,-84
2016-07-02T13:08:43.746Z,-85
2016-07-02T13:09:43.872Z,-85
2016-07-02T13:10:43.789Z,-85
2016-07-02T13:11:43.862Z,-86
2016-07-02T13:12:43.754Z,-85
2016-07-02T13:13:43.769Z,-86
2016-07-02T13:14:43.823Z,-85
2016-07-02T13:15:43.841Z,-85
2016-07-02T13:16:43.840Z,-86
2016-07-02T13:17:43.885Z,-86
2016-07-02T13:18:43.851Z,-85
2016-07-02T13:19:43.928Z,-86
2016-07-02T13:20:43.842Z,-85
2016-07-02T13:21:43.730Z,-85
2016-07-02T13:22:43.856Z,-85
2016-07-02T13:23:43.852Z,-85
2016-07-02T13:24:43.803Z,-85
2016-07-02T13:25:43.834Z,-84
2016-07-02T13:26:43.788Z,-84
2016-07-02T13:27:43.759Z,-84
2016-07-02T13:28:43.877Z,-85
2016-07-02T13:29:43.855Z,-84
2016-07-02T13:30:43.890Z,-84
2016-07-02T13:31:43.835Z,-84
2016-07-02T13:32:43.850Z,-84
2016-07-02T13:33:43.901Z,-85
2016-07-02T13:34:43.856Z,-84
2016-07-02T13:35:43.847Z,-84
2016-07-02T13:36:43.877Z,-85
2016-07-02T13:37:43.858Z,-84
2016-07-02T13:38:43.829Z,-84
2016-07-02T13:39:44.174Z,-84
2016-07-02T13:40:43.849Z,-84
2016-07-02T13:41:43.846Z,-85
2016-07-02T13:42:43.932Z,-86
2016-07-02T13:43:43.900Z,-85
2016-07-02T13:44:43.932Z,-85
2016-07-02T13:45:43.884Z,-85
2016-07-02T13:46:43.843Z,-86
2016-07-02T13:47:43.910Z,-85
2016-07-02T13:48:43.878Z,-85
2016-07-02T13:49:43.929Z,-85
2016-07-02T13:50:43.861Z,-85
2016-07-02T13:51:43.741Z,-85
2016-07-02T13:52:43.861Z,-85
2016-07-02T13:53:43.991Z,-86
2016-07-02T13:54:44.011Z,-85
2016-07-02T13:55:43.955Z,-86
2016-07-02T13:56:43.969Z,-85
2016-07-02T13:57:43.970Z,-86
2016-07-02T13:58:43.923Z,-85
2016-07-02T13:59:44.102Z,-85
2016-07-02T14:00:43.938Z,-86
2016-07-02T14:01:43.979Z,-85
2016-07-02T14:02:43.838Z,-85
2016-07-02T14:03:43.899Z,-85
2016-07-02T14:04:43.923Z,-85
2016-07-02T14:05:44.281Z,-86
2016-07-02T14:06:43.972Z,-85
2016-07-02T14:07:43.955Z,-85
2016-07-02T14:08:44.146Z,-85
2016-07-02T14:09:43.828Z,-85
2016-07-02T14:10:43.925Z,-85
2016-07-02T14:11:43.884Z,-85
2016-07-02T14:12:43.950Z,-85
2016-07-02T14:13:43.858Z,-85
2016-07-02T14:14:43.909Z,-86
2016-07-02T14:15:43.938Z,-86
2016-07-02T14:16:43.913Z,-85
2016-07-02T14:17:43.878Z,-86
2016-07-02T14:18:44.151Z,-85
2016-07-02T14:19:44.020Z,-85
2016-07-02T14:20:43.980Z,-85
2016-07-02T14:21:44.000Z,-85
2016-07-02T14:22:43.874Z,-85
2016-07-02T14:23:43.951Z,-85
2016-07-02T14:24:44.001Z,-85
2016-07-02T14:25:44.015Z,-85
2016-07-02T14:26:44.046Z,-85
2016-07-02T14:27:43.975Z,-85
2016-07-02T14:28:44.011Z,-85
2016-07-02T14:29:44.056Z,-85
2016-07-02T14:30:43.953Z,-84
2016-07-02T14:31:43.949Z,-85
2016-07-02T14:32:44.057Z,-85
2016-07-02T14:33:44.053Z,-85
2016-07-02T14:34:44.129Z,-84
2016-07-02T14:35:43.987Z,-85
2016-07-02T14:36:43.997Z,-84
2016-07-02T14:37:43.955Z,-85
2016-07-02T14:38:43.981Z,-85
2016-07-02T14:39:44.317Z,-85
2016-07-02T14:40:44.054Z,-84
2016-07-02T14:41:44.129Z,-84
2016-07-02T14:42:44.015Z,-84